createdAt,value
2018-12-10T00:02:21.704Z,7.50
2018-12-10T00:04:49.228Z,7.40
2018-12-10T00:07:16.780Z,7.40
2018-12-10T00:09:44.299Z,7.40
2018-12-10T00:12:11.848Z,7.40
2018-12-10T00:14:39.369Z,7.30
2018-12-10T00:17:06.911Z,7.30
2018-12-10T00:19:34.426Z,7.30
2018-12-10T00:22:01.972Z,7.30
2018-12-10T00:24:29.488Z,7.40
2018-12-10T00:26:57.035Z,7.50
2018-12-10T00:29:24.552Z,7.50
2018-12-10T00:31:52.095Z,7.50
2018-12-10T00:34:19.615Z,7.40
2018-12-10T00:36:47.162Z,7.40
2018-12-10T00:39:14.684Z,7.40
2018-12-10T00:41:42.285Z,7.30
2018-12-10T00:44:09.831Z,7.30
2018-12-10T00:46:37.428Z,7.30
2018-12-10T00:49:04.984Z,7.50
2018-12-10T00:51:32.501Z,7.40
2018-12-10T00:54:00.042Z,7.40
2018-12-10T00:56:27.560Z,7.40
2018-12-10T00:58:55.096Z,7.30
2018-12-10T01:01:22.609Z,7.30
2018-12-10T01:03:50.147Z,7.20
2018-12-10T01:06:17.659Z,7.30
2018-12-10T01:08:45.203Z,7.30
2018-12-10T01:11:12.719Z,7.20
2018-12-10T01:13:40.271Z,7.30
2018-12-10T01:16:07.791Z,7.30
2018-12-10T01:18:35.339Z,7.30
2018-12-10T01:21:02.855Z,7.20
2018-12-10T01:23:30.400Z,7.20
2018-12-10T01:25:58.016Z,7.20
2018-12-10T01:28:25.560Z,7.20
2018-12-10T01:30:53.075Z,7.20
2018-12-10T01:33:20.617Z,7.20
2018-12-10T01:35:48.142Z,7.20
2018-12-10T01:38:15.691Z,7.20
2018-12-10T01:40:43.212Z,7.20
2018-12-10T01:43:10.751Z,7.30
2018-12-10T01:45:38.274Z,7.30
2018-12-10T01:48:05.829Z,7.30
2018-12-10T01:50:33.355Z,7.30
2018-12-10T01:53:00.899Z,7.40
2018-12-10T01:55:28.420Z,7.50
2018-12-10T01:57:55.962Z,7.40
2018-12-10T02:00:23.636Z,7.30
2018-12-10T02:02:51.182Z,7.20
2018-12-10T02:05:18.705Z,7.20
2018-12-10T02:07:46.250Z,7.20
2018-12-10T02:10:13.763Z,7.20
2018-12-10T02:12:41.308Z,7.20
2018-12-10T02:15:08.907Z,7.20
2018-12-10T02:17:36.449Z,7.10
2018-12-10T02:20:04.440Z,7.10
2018-12-10T02:22:31.959Z,7.20
2018-12-10T02:24:59.499Z,7.20
2018-12-10T02:27:27.018Z,7.20
2018-12-10T02:29:54.561Z,7.10
2018-12-10T02:32:22.088Z,7.00
2018-12-10T02:34:49.635Z,7.00
2018-12-10T02:37:17.151Z,7.00
2018-12-10T02:39:44.695Z,7.00
2018-12-10T02:42:12.211Z,6.90
2018-12-10T02:44:39.756Z,6.70
2018-12-10T02:47:07.280Z,6.70
2018-12-10T02:49:34.828Z,6.70
2018-12-10T02:52:02.343Z,6.90
2018-12-10T02:54:29.889Z,6.70
2018-12-10T02:56:57.426Z,6.70
2018-12-10T02:59:24.971Z,6.70
2018-12-10T03:01:52.500Z,6.70
2018-12-10T03:04:20.048Z,6.80
2018-12-10T03:06:47.565Z,6.90
2018-12-10T03:09:15.103Z,6.90
2018-12-10T03:11:42.624Z,7.00
2018-12-10T03:14:10.172Z,6.90
2018-12-10T03:16:37.694Z,6.90
2018-12-10T03:19:05.240Z,6.90
2018-12-10T03:21:32.757Z,6.80
2018-12-10T03:24:00.304Z,6.70
2018-12-10T03:26:27.828Z,6.70
2018-12-10T03:28:55.377Z,6.70
2018-12-10T03:31:22.894Z,6.70
2018-12-10T03:33:50.439Z,6.60
2018-12-10T03:36:17.959Z,6.70
2018-12-10T03:38:45.499Z,6.60
2018-12-10T03:41:13.023Z,6.60
2018-12-10T03:43:40.576Z,6.60
2018-12-10T03:46:08.087Z,6.60
2018-12-10T03:48:35.608Z,6.50
2018-12-10T03:51:03.151Z,6.60
2018-12-10T03:53:30.668Z,6.40
2018-12-10T03:55:58.215Z,6.50
2018-12-10T03:58:25.735Z,6.40
2018-12-10T04:00:53.279Z,6.30
2018-12-10T04:03:20.794Z,6.20
2018-12-10T04:05:48.335Z,6.10
2018-12-10T04:08:15.851Z,6.10
2018-12-10T04:10:43.409Z,6.00
2018-12-10T04:13:11.007Z,5.70
2018-12-10T04:15:38.835Z,5.70
2018-12-10T04:18:06.358Z,5.70
2018-12-10T04:20:33.898Z,5.50
2018-12-10T04:23:01.431Z,5.50
2018-12-10T04:25:28.972Z,5.50
2018-12-10T04:27:56.483Z,5.50
2018-12-10T04:30:24.022Z,5.60
2018-12-10T04:32:51.539Z,5.60
2018-12-10T04:35:19.083Z,5.70
2018-12-10T04:37:46.621Z,5.70
2018-12-10T04:40:14.262Z,5.80
2018-12-10T04:42:41.783Z,5.80
2018-12-10T04:45:09.425Z,5.90
2018-12-10T04:47:36.964Z,5.90
2018-12-10T04:50:05.292Z,6.00
2018-12-10T04:52:32.812Z,5.90
2018-12-10T04:55:00.459Z,5.90
2018-12-10T04:57:27.976Z,5.90
2018-12-10T04:59:56.147Z,5.80
2018-12-10T05:02:23.661Z,5.80
2018-12-10T05:04:51.200Z,5.80
2018-12-10T05:07:18.720Z,5.90
2018-12-10T05:09:46.267Z,5.90
2018-12-10T05:12:13.786Z,6.00
2018-12-10T05:14:41.324Z,5.90
2018-12-10T05:17:08.839Z,5.90
2018-12-10T05:19:36.379Z,6.00
2018-12-10T05:22:03.975Z,5.90
2018-12-10T05:24:31.563Z,6.10
2018-12-10T05:27:01.132Z,5.90
2018-12-10T05:29:28.627Z,5.70
2018-12-10T05:31:56.168Z,5.70
2018-12-10T05:34:23.680Z,5.50
2018-12-10T05:36:51.223Z,5.50
2018-12-10T05:39:18.736Z,5.50
2018-12-10T05:41:46.283Z,5.50
2018-12-10T05:44:13.816Z,5.40
2018-12-10T05:46:41.369Z,5.30
2018-12-10T05:49:08.887Z,5.30
2018-12-10T05:51:36.431Z,5.20
2018-12-10T05:54:04.103Z,5.30
2018-12-10T05:56:31.638Z,5.30
2018-12-10T05:58:59.154Z,5.30
2018-12-10T06:01:26.731Z,5.20
2018-12-10T06:03:54.248Z,5.20
2018-12-10T06:06:21.787Z,5.20
2018-12-10T06:08:49.306Z,5.30
2018-12-10T06:11:16.873Z,5.40
2018-12-10T06:13:44.395Z,5.40
2018-12-10T06:16:11.938Z,5.50
2018-12-10T06:18:39.451Z,5.50
2018-12-10T06:21:07.000Z,5.60
2018-12-10T06:23:34.520Z,5.60
2018-12-10T06:26:02.065Z,5.60
2018-12-10T06:28:29.579Z,5.50
2018-12-10T06:30:57.115Z,5.60
2018-12-10T06:33:24.643Z,5.60
2018-12-10T06:35:52.187Z,5.80
2018-12-10T06:38:19.705Z,5.70
2018-12-10T06:40:47.259Z,5.60
2018-12-10T06:43:14.787Z,5.60
2018-12-10T06:45:42.339Z,5.60
2018-12-10T06:48:09.971Z,5.60
2018-12-10T06:50:37.563Z,5.60
2018-12-10T06:53:05.172Z,5.60
2018-12-10T06:55:34.881Z,5.60
2018-12-10T07:00:48.953Z,5.60
2018-12-10T07:03:19.413Z,5.50
2018-12-10T07:05:49.643Z,5.40
2018-12-10T07:08:18.422Z,5.40
2018-12-10T07:10:47.613Z,5.40
2018-12-10T07:13:15.191Z,5.30
2018-12-10T07:15:42.735Z,5.20
2018-12-10T07:18:10.284Z,5.10
2018-12-10T07:20:38.315Z,5.10
2018-12-10T07:23:05.855Z,5.00
2018-12-10T07:25:33.623Z,4.90
2018-12-10T07:28:01.243Z,5.00
2018-12-10T07:30:28.759Z,4.90
2018-12-10T07:32:56.303Z,4.90
2018-12-10T07:35:23.944Z,4.80
2018-12-10T07:37:51.488Z,4.90
2018-12-10T07:40:19.155Z,4.80
2018-12-10T07:42:46.714Z,4.90
2018-12-10T07:45:14.242Z,5.00
2018-12-10T07:47:41.787Z,5.10
2018-12-10T07:50:09.313Z,5.10
2018-12-10T07:52:36.856Z,5.10
2018-12-10T07:55:04.623Z,5.00
2018-12-10T07:57:32.172Z,5.00
2018-12-10T07:59:59.696Z,5.00
2018-12-10T08:02:27.239Z,5.00
2018-12-10T08:04:54.752Z,5.00
2018-12-10T08:07:22.312Z,5.10
2018-12-10T08:09:49.829Z,5.10
2018-12-10T08:12:17.380Z,5.10
2018-12-10T08:14:44.898Z,5.20
2018-12-10T08:17:12.464Z,5.20
2018-12-10T08:19:41.605Z,5.20
2018-12-10T08:22:09.381Z,5.30
2018-12-10T08:24:36.905Z,5.20
2018-12-10T08:27:09.481Z,5.30
2018-12-10T08:29:34.165Z,5.20
2018-12-10T08:32:02.068Z,5.10
2018-12-10T08:34:29.900Z,5.20
2018-12-10T08:36:57.430Z,5.30
2018-12-10T08:39:27.323Z,5.30
2018-12-10T08:41:54.988Z,5.40
2018-12-10T08:44:22.710Z,5.50
2018-12-10T08:46:50.327Z,5.50
2018-12-10T08:49:17.873Z,5.50
2018-12-10T08:51:45.391Z,5.50
2018-12-10T08:54:13.035Z,5.50
2018-12-10T08:56:40.551Z,5.50
2018-12-10T08:59:08.101Z,5.50
2018-12-10T09:01:35.729Z,5.50
2018-12-10T09:04:03.351Z,5.40
2018-12-10T09:06:31.865Z,5.40
2018-12-10T09:08:59.407Z,5.40
2018-12-10T09:11:27.098Z,5.50
2018-12-10T09:13:54.864Z,5.60
2018-12-10T09:16:23.265Z,5.70
2018-12-10T09:18:50.807Z,5.90
2018-12-10T09:21:18.326Z,6.00
2018-12-10T09:23:45.885Z,6.00
2018-12-10T09:26:13.569Z,6.20
2018-12-10T09:28:41.117Z,6.20
2018-12-10T09:31:08.643Z,6.30
2018-12-10T09:33:36.194Z,6.40
2018-12-10T09:36:03.711Z,6.40
2018-12-10T09:38:31.286Z,6.50
2018-12-10T09:40:58.861Z,6.50
2018-12-10T09:43:27.536Z,6.50
2018-12-10T09:45:55.219Z,6.70
2018-12-10T09:48:22.899Z,6.60
2018-12-10T09:50:50.449Z,6.70
2018-12-10T09:53:17.988Z,6.70
2018-12-10T09:55:45.556Z,6.80
2018-12-10T09:58:13.083Z,7.00
2018-12-10T10:00:40.633Z,7.20
2018-12-10T10:03:08.167Z,7.30
2018-12-10T10:05:35.744Z,7.30
2018-12-10T10:08:14.606Z,7.40
2018-12-10T10:10:42.233Z,7.50
2018-12-10T10:13:09.763Z,7.50
2018-12-10T10:15:37.306Z,7.50
2018-12-10T10:18:04.861Z,7.50
2018-12-10T10:20:32.416Z,7.60
2018-12-10T10:22:59.936Z,7.70
2018-12-10T10:25:27.478Z,7.80
2018-12-10T10:27:55.095Z,7.90
2018-12-10T10:30:22.644Z,7.80
2018-12-10T10:32:50.170Z,7.80
2018-12-10T10:35:17.719Z,7.80
2018-12-10T10:37:45.258Z,7.80
2018-12-10T10:40:12.807Z,7.70
2018-12-10T10:42:40.323Z,7.70
2018-12-10T10:45:08.036Z,7.70
2018-12-10T10:47:35.554Z,7.60
2018-12-10T10:50:03.461Z,7.50
2018-12-10T10:52:33.344Z,7.60
2018-12-10T10:55:00.572Z,7.40
2018-12-10T10:57:28.105Z,7.40
2018-12-10T10:59:55.655Z,7.50
2018-12-10T11:05:28.335Z,7.80
2018-12-10T11:07:55.855Z,7.80
2018-12-10T11:10:23.399Z,7.80
2018-12-10T11:12:50.915Z,8.00
2018-12-10T11:15:18.458Z,7.90
2018-12-10T11:17:46.058Z,7.90
2018-12-10T11:20:13.680Z,7.90
2018-12-10T11:22:41.237Z,8.00
2018-12-10T11:25:09.354Z,8.10
2018-12-10T11:27:37.064Z,8.20
2018-12-10T11:30:05.331Z,8.30
2018-12-10T11:32:33.991Z,8.40
2018-12-10T11:35:01.624Z,8.70
2018-12-10T11:37:29.182Z,8.70
2018-12-10T11:39:56.695Z,8.70
2018-12-10T11:42:24.251Z,8.60
2018-12-10T11:44:52.031Z,8.50
2018-12-10T11:47:19.699Z,8.60
2018-12-10T11:49:48.484Z,8.40
2018-12-10T11:52:18.431Z,8.40
2018-12-10T11:54:46.127Z,8.40
2018-12-10T11:57:13.759Z,8.30
2018-12-10T11:59:41.349Z,8.20
2018-12-10T12:02:08.979Z,8.10
2018-12-10T12:04:36.515Z,8.10
2018-12-10T12:07:04.081Z,7.90
2018-12-10T12:09:31.603Z,7.80
2018-12-10T12:11:59.148Z,7.80
2018-12-10T12:14:29.040Z,7.80
2018-12-10T12:16:56.600Z,7.80
2018-12-10T12:19:24.163Z,7.80
2018-12-10T12:21:51.702Z,7.90
2018-12-10T12:24:19.244Z,8.00
2018-12-10T12:26:46.814Z,8.00
2018-12-10T12:29:14.333Z,8.10
2018-12-10T12:31:41.879Z,8.20
2018-12-10T12:34:09.408Z,8.30
2018-12-10T12:36:37.070Z,8.30
2018-12-10T12:39:05.750Z,8.40
2018-12-10T12:41:33.301Z,8.30
2018-12-10T12:44:01.104Z,8.30
2018-12-10T12:46:30.019Z,8.30
2018-12-10T12:48:57.877Z,8.30
2018-12-10T12:51:25.437Z,8.30
2018-12-10T12:53:52.960Z,8.20
2018-12-10T12:56:20.519Z,8.10
2018-12-10T12:58:48.052Z,8.20
2018-12-10T13:01:15.775Z,8.40
2018-12-10T13:03:43.339Z,8.70
2018-12-10T13:06:10.987Z,8.80
2018-12-10T13:08:38.499Z,9.00
2018-12-10T13:11:06.051Z,9.00
2018-12-10T13:13:33.752Z,8.90
2018-12-10T13:16:01.279Z,9.00
2018-12-10T13:18:29.430Z,9.00
2018-12-10T13:20:57.861Z,9.00
2018-12-10T13:23:25.502Z,9.00
2018-12-10T13:25:53.032Z,9.00
2018-12-10T13:28:20.602Z,9.10
2018-12-10T13:30:48.219Z,9.20
2018-12-10T13:33:15.767Z,9.30
2018-12-10T13:35:43.304Z,9.30
2018-12-10T13:38:12.563Z,9.40
2018-12-10T13:40:40.407Z,9.30
2018-12-10T13:43:07.964Z,9.30
2018-12-10T13:45:35.501Z,9.30
2018-12-10T13:48:03.049Z,9.20
2018-12-10T13:50:30.569Z,9.00
2018-12-10T13:52:58.115Z,8.80
2018-12-10T13:55:28.857Z,8.90
2018-12-10T13:57:55.235Z,8.80
2018-12-10T14:00:22.768Z,8.50
2018-12-10T14:02:50.313Z,8.50
2018-12-10T14:05:17.835Z,8.50
2018-12-10T14:07:48.070Z,8.50
2018-12-10T14:10:14.931Z,8.40
2018-12-10T14:12:42.471Z,8.30
2018-12-10T14:15:10.087Z,8.30
2018-12-10T14:17:37.641Z,8.30
2018-12-10T14:20:05.718Z,8.10
2018-12-10T14:22:33.327Z,8.20
2018-12-10T14:25:00.920Z,8.20
2018-12-10T14:27:28.481Z,8.10
2018-12-10T14:29:56.080Z,8.00
2018-12-10T14:32:23.635Z,8.00
2018-12-10T14:34:51.247Z,8.00
2018-12-10T14:37:18.788Z,7.90
2018-12-10T14:39:46.378Z,7.90
2018-12-10T14:42:20.463Z,7.80
2018-12-10T14:44:47.983Z,7.90
2018-12-10T14:47:15.624Z,8.00
2018-12-10T14:49:43.139Z,7.90
2018-12-10T14:52:10.691Z,7.80
2018-12-10T14:54:38.337Z,7.80
2018-12-10T14:57:05.884Z,7.70
2018-12-10T14:59:33.402Z,7.90
2018-12-10T15:02:00.919Z,7.90
2018-12-10T15:04:29.083Z,7.90
2018-12-10T15:06:56.604Z,7.90
2018-12-10T15:09:24.143Z,7.80
2018-12-10T15:11:51.661Z,7.80
2018-12-10T15:14:19.206Z,7.80
2018-12-10T15:16:46.731Z,7.80
2018-12-10T15:19:14.288Z,7.80
2018-12-10T15:21:41.878Z,7.60
2018-12-10T15:24:09.427Z,7.60
2018-12-10T15:26:36.953Z,7.50
2018-12-10T15:29:04.596Z,7.40
2018-12-10T15:31:32.119Z,7.30
2018-12-10T15:33:59.669Z,7.30
2018-12-10T15:36:27.183Z,7.30
2018-12-10T15:38:54.724Z,7.30
2018-12-10T15:41:22.242Z,7.30
2018-12-10T15:43:49.793Z,7.40
2018-12-10T15:46:17.317Z,7.40
2018-12-10T15:48:44.868Z,7.30
2018-12-10T15:51:12.389Z,7.50
2018-12-10T15:53:39.931Z,7.30
2018-12-10T15:56:07.528Z,7.20
2018-12-10T15:58:35.072Z,7.30
2018-12-10T16:01:02.588Z,7.30
2018-12-10T16:03:30.135Z,7.40
2018-12-10T16:05:57.656Z,7.40
2018-12-10T16:08:25.211Z,7.40
2018-12-10T16:10:52.735Z,7.40
2018-12-10T16:13:20.288Z,7.30
2018-12-10T16:15:47.922Z,7.20
2018-12-10T16:18:15.575Z,7.30
2018-12-10T16:20:43.095Z,7.30
2018-12-10T16:23:10.657Z,7.40
2018-12-10T16:25:38.175Z,7.40
2018-12-10T16:28:05.798Z,7.40
2018-12-10T16:30:33.914Z,7.40
2018-12-10T16:33:01.754Z,7.30
2018-12-10T16:35:29.560Z,7.30
2018-12-10T16:37:57.116Z,7.30
2018-12-10T16:40:24.627Z,7.30
2018-12-10T16:42:52.148Z,7.30
2018-12-10T16:45:19.692Z,7.30
2018-12-10T16:47:47.207Z,7.30
2018-12-10T16:50:14.755Z,7.20
2018-12-10T16:52:42.275Z,7.30
2018-12-10T16:55:09.987Z,7.30
2018-12-10T16:57:37.539Z,7.40
2018-12-10T17:00:08.939Z,7.40
2018-12-10T17:02:36.479Z,7.30
2018-12-10T17:05:06.294Z,7.30
2018-12-10T17:07:33.813Z,7.30
2018-12-10T17:10:01.365Z,7.40
2018-12-10T17:12:28.886Z,7.40
2018-12-10T17:14:56.431Z,7.40
2018-12-10T17:17:23.951Z,7.40
2018-12-10T17:19:51.505Z,7.40
2018-12-10T17:22:19.031Z,7.50
2018-12-10T17:24:46.575Z,7.50
2018-12-10T17:27:14.091Z,7.60
2018-12-10T17:29:41.636Z,7.40
2018-12-10T17:32:09.152Z,7.40
2018-12-10T17:34:36.707Z,7.50
2018-12-10T17:37:04.228Z,7.40
2018-12-10T17:39:31.778Z,7.40
2018-12-10T17:41:59.299Z,7.40
2018-12-10T17:44:26.838Z,7.40
2018-12-10T17:46:54.357Z,7.40
2018-12-10T17:49:23.408Z,7.40
2018-12-10T17:51:51.027Z,7.30
2018-12-10T17:54:18.582Z,7.40
2018-12-10T17:56:46.183Z,7.30
2018-12-10T17:59:13.817Z,7.00
2018-12-10T18:01:41.330Z,6.60
2018-12-10T18:04:08.956Z,6.30
2018-12-10T18:06:36.473Z,5.90
2018-12-10T18:09:06.376Z,5.70
2018-12-10T18:11:33.967Z,5.60
2018-12-10T18:14:01.522Z,5.60
2018-12-10T18:16:29.048Z,5.60
2018-12-10T18:18:56.588Z,5.60
2018-12-10T18:21:24.108Z,5.60
2018-12-10T18:23:51.656Z,5.60
2018-12-10T18:26:19.207Z,5.60
2018-12-10T18:28:46.726Z,5.80
2018-12-10T18:31:14.273Z,5.70
2018-12-10T18:33:41.887Z,5.70
2018-12-10T18:36:09.589Z,5.80
2018-12-10T18:38:37.103Z,5.70
2018-12-10T18:41:04.658Z,5.70
2018-12-10T18:43:32.248Z,5.70
2018-12-10T18:45:59.801Z,5.70
2018-12-10T18:48:27.324Z,5.80
2018-12-10T18:50:54.878Z,5.70
2018-12-10T18:53:22.417Z,5.60
2018-12-10T18:55:49.967Z,5.70
2018-12-10T18:58:18.667Z,5.70
2018-12-10T19:00:46.229Z,5.60
2018-12-10T19:03:13.748Z,5.70
2018-12-10T19:05:41.288Z,5.70
2018-12-10T19:08:08.808Z,5.70
2018-12-10T19:10:36.348Z,5.70
2018-12-10T19:13:03.877Z,5.70
2018-12-10T19:15:31.486Z,5.50
2018-12-10T19:17:59.356Z,5.40
2018-12-10T19:20:26.911Z,5.50
2018-12-10T19:22:54.429Z,5.60
2018-12-10T19:25:22.026Z,5.50
2018-12-10T19:27:49.604Z,5.50
2018-12-10T19:30:17.160Z,5.50
2018-12-10T19:32:44.675Z,5.40
2018-12-10T19:35:12.235Z,5.40
2018-12-10T19:37:39.763Z,5.50
2018-12-10T19:40:07.585Z,5.50
2018-12-10T19:42:35.127Z,5.30
2018-12-10T19:45:03.055Z,5.30
2018-12-10T19:47:30.603Z,5.20
2018-12-10T19:49:58.126Z,5.10
2018-12-10T19:52:25.670Z,5.10
2018-12-10T19:54:53.280Z,5.10
2018-12-10T19:57:20.838Z,4.90
2018-12-10T19:59:48.351Z,5.00
2018-12-10T20:02:16.071Z,5.00
2018-12-10T20:04:43.604Z,4.90
2018-12-10T20:07:11.165Z,4.80
2018-12-10T20:09:38.679Z,4.80
2018-12-10T20:12:06.226Z,4.90
2018-12-10T20:14:33.740Z,4.90
2018-12-10T20:17:01.279Z,4.70
2018-12-10T20:19:28.963Z,4.80
2018-12-10T20:21:56.503Z,4.80
2018-12-10T20:24:24.018Z,4.70
2018-12-10T20:26:51.569Z,4.70
2018-12-10T20:29:19.092Z,4.60
2018-12-10T20:31:46.656Z,4.50
2018-12-10T20:34:14.244Z,4.50
2018-12-10T20:36:41.812Z,4.50
2018-12-10T20:39:09.427Z,4.50
2018-12-10T20:41:36.976Z,4.40
2018-12-10T20:44:04.495Z,4.40
2018-12-10T20:46:32.037Z,4.40
2018-12-10T20:48:59.551Z,4.40
2018-12-10T20:51:27.204Z,4.50
2018-12-10T20:53:54.943Z,4.50
2018-12-10T20:56:22.464Z,4.60
2018-12-10T20:58:50.011Z,4.60
2018-12-10T21:01:17.610Z,4.70
2018-12-10T21:03:45.155Z,4.70
2018-12-10T21:06:18.482Z,4.70
2018-12-10T21:08:46.131Z,4.70
2018-12-10T21:11:13.671Z,4.70
2018-12-10T21:13:41.312Z,4.90
2018-12-10T21:16:08.829Z,4.90
2018-12-10T21:18:36.380Z,4.90
2018-12-10T21:21:03.976Z,4.90
2018-12-10T21:23:31.520Z,4.80
2018-12-10T21:25:59.035Z,4.90
2018-12-10T21:28:26.583Z,4.90
2018-12-10T21:30:54.097Z,4.90
2018-12-10T21:33:21.643Z,5.00
2018-12-10T21:35:49.160Z,5.00
2018-12-10T21:38:16.703Z,4.90
2018-12-10T21:40:44.235Z,4.80
2018-12-10T21:43:11.792Z,4.80
2018-12-10T21:45:39.321Z,4.80
2018-12-10T21:48:06.922Z,4.60
2018-12-10T21:50:34.510Z,4.60
2018-12-10T21:53:02.052Z,4.60
2018-12-10T21:55:29.575Z,4.70
2018-12-10T21:57:57.121Z,4.70
2018-12-10T22:00:24.635Z,4.70
2018-12-10T22:02:52.191Z,4.70
2018-12-10T22:05:19.706Z,4.70
2018-12-10T22:07:47.247Z,4.70
2018-12-10T22:10:14.775Z,4.70
2018-12-10T22:12:42.315Z,4.80
2018-12-10T22:15:09.831Z,4.70
2018-12-10T22:17:37.377Z,4.80
2018-12-10T22:20:05.556Z,4.80
2018-12-10T22:22:33.068Z,4.70
2018-12-10T22:25:00.615Z,4.70
2018-12-10T22:27:28.127Z,4.70
2018-12-10T22:29:55.677Z,4.70
2018-12-10T22:32:23.191Z,4.60
2018-12-10T22:34:50.726Z,4.50
2018-12-10T22:37:18.243Z,4.50
2018-12-10T22:39:45.796Z,4.40
2018-12-10T22:42:13.307Z,4.40
2018-12-10T22:44:40.851Z,4.40
2018-12-10T22:47:08.369Z,4.50
2018-12-10T22:49:35.916Z,4.40
2018-12-10T22:52:03.576Z,4.30
2018-12-10T22:54:31.113Z,4.20
2018-12-10T22:56:58.627Z,4.20
2018-12-10T22:59:26.172Z,4.20
2018-12-10T23:01:53.685Z,4.10
2018-12-10T23:04:21.231Z,4.10
2018-12-10T23:06:48.743Z,4.10
2018-12-10T23:09:16.287Z,4.10
2018-12-10T23:11:43.803Z,4.10
2018-12-10T23:14:11.347Z,4.20
2018-12-10T23:16:38.925Z,4.30
2018-12-10T23:19:06.528Z,4.20
2018-12-10T23:21:34.047Z,4.30
2018-12-10T23:24:01.587Z,4.40
2018-12-10T23:26:29.103Z,4.40
2018-12-10T23:28:56.645Z,4.50
2018-12-10T23:31:24.159Z,4.40
2018-12-10T23:33:51.700Z,4.30
2018-12-10T23:36:19.207Z,4.30
2018-12-10T23:38:46.765Z,4.30
2018-12-10T23:41:14.280Z,4.50
2018-12-10T23:43:41.805Z,4.50
2018-12-10T23:46:09.347Z,4.50
2018-12-10T23:48:36.873Z,4.30
2018-12-10T23:51:04.412Z,4.20
2018-12-10T23:53:31.937Z,4.30
2018-12-10T23:55:59.495Z,4.30
2018-12-10T23:58:27.007Z,4.30
